Time;durP1;ratioP1;P1;durP2;ratioP2;P2;SDS_P1;SDS_P2;PMS_P1;PMS_P2;Temp;Humidity;BMP_temperature;BMP_pressure;BME280_temperature;BME280_humidity;BME280_pressure;Samples;Min_cycle;Max_cycle;Signal;HPM_P1;HPM_P2
2022/06/01 19:49:36;;;;;;;4.30;2.30;;;;;;;;;;5106078;27;20210;-60
2022/06/01 19:52:22;;;;;;;3.78;2.30;;;;;;;;;;5100777;28;20031;-59
2022/06/01 19:55:07;;;;;;;3.58;2.15;;;;;;;;;;5115520;28;20024;-59
2022/06/01 19:57:53;;;;;;;5.22;2.40;;;;;;;;;;5104204;28;20047;-58
2022/06/01 20:00:39;;;;;;;4.20;2.20;;;;;;;;;;5103820;28;20477;-69
2022/06/01 20:03:25;;;;;;;5.97;2.65;;;;;;;;;;5107098;28;20020;-67
2022/06/01 20:06:11;;;;;;;4.60;2.25;;;;;;;;;;5104617;28;20538;-66
2022/06/01 20:08:57;;;;;;;4.72;2.28;;;;;;;;;;5094173;28;20071;-65
2022/06/01 20:14:47;;;;;;;5.00;2.53;;;;;;;;;;5105079;28;20474;-64
2022/06/01 20:17:33;;;;;;;2.40;2.00;;;;;;;;;;5095100;28;20114;-68
2022/06/01 20:20:18;;;;;;;2.42;1.80;;;;;;;;;;5103139;28;20477;-62
2022/06/01 20:23:04;;;;;;;6.75;1.80;;;;;;;;;;5110371;28;20039;-64
2022/06/01 20:25:51;;;;;;;2.80;2.00;;;;;;;;;;5102117;28;20505;-62
2022/06/01 20:28:36;;;;;;;3.47;2.20;;;;;;;;;;5101672;28;20032;-64
2022/06/01 20:31:25;;;;;;;4.30;2.75;;;;;;;;;;5102724;28;20016;-63
2022/06/01 20:34:11;;;;;;;5.85;2.00;;;;;;;;;;5096382;28;20024;-64
2022/06/01 20:36:57;;;;;;;5.07;2.40;;;;;;;;;;5096629;28;20031;-63
2022/06/01 20:39:42;;;;;;;4.00;2.58;;;;;;;;;;5100895;28;20027;-64
2022/06/01 20:42:29;;;;;;;7.05;2.30;;;;;;;;;;5098248;28;20028;-63
2022/06/01 20:45:15;;;;;;;2.92;1.98;;;;;;;;;;5098729;28;20020;-66
2022/06/01 20:48:01;;;;;;;3.97;2.30;;;;;;;;;;5099694;28;20048;-64
2022/06/01 20:50:46;;;;;;;4.03;2.70;;;;;;;;;;5093580;28;20032;-64
2022/06/01 20:53:32;;;;;;;3.50;2.20;;;;;;;;;;5093395;28;20038;-64
2022/06/01 20:56:18;;;;;;;6.30;2.45;;;;;;;;;;5095693;28;20051;-61
2022/06/01 20:59:04;;;;;;;5.35;2.10;;;;;;;;;;5094267;28;20035;-65
2022/06/01 21:01:50;;;;;;;4.80;2.17;;;;;;;;;;5094093;28;20028;-64
2022/06/01 21:04:35;;;;;;;4.38;2.13;;;;;;;;;;5085103;28;20074;-64
2022/06/01 21:07:22;;;;;;;3.13;2.05;;;;;;;;;;5103926;28;20026;-64
2022/06/01 21:10:09;;;;;;;6.28;2.45;;;;;;;;;;5098032;28;20112;-65
2022/06/01 21:12:55;;;;;;;4.60;1.77;;;;;;;;;;5104421;28;20058;-63
2022/06/01 21:15:40;;;;;;;5.35;2.45;;;;;;;;;;5097890;28;20031;-73
2022/06/01 21:18:26;;;;;;;4.00;2.00;;;;;;;;;;5107845;28;20050;-62
2022/06/01 21:21:12;;;;;;;3.67;2.30;;;;;;;;;;5102592;28;20023;-63
2022/06/01 21:23:58;;;;;;;4.82;2.28;;;;;;;;;;5103387;28;20020;-65
2022/06/01 21:26:44;;;;;;;3.45;2.25;;;;;;;;;;5087432;28;20097;-63
2022/06/01 21:29:30;;;;;;;8.77;2.60;;;;;;;;;;5104268;27;20038;-64
2022/06/01 21:32:16;;;;;;;4.55;2.10;;;;;;;;;;5120245;27;20020;-70
2022/06/01 21:35:02;;;;;;;4.18;2.33;;;;;;;;;;5114280;27;20481;-62
2022/06/01 21:37:49;;;;;;;4.75;2.13;;;;;;;;;;5115214;27;20504;-61
2022/06/01 21:40:34;;;;;;;3.25;1.98;;;;;;;;;;5106939;28;20080;-60
2022/06/01 21:43:20;;;;;;;3.28;2.10;;;;;;;;;;5096903;28;20107;-60
2022/06/01 21:46:06;;;;;;;2.78;1.80;;;;;;;;;;5109125;28;20035;-60
2022/06/01 21:48:51;;;;;;;4.65;2.35;;;;;;;;;;5101696;28;20473;-62
2022/06/01 21:51:40;;;;;;;3.45;2.00;;;;;;;;;;5110213;27;20474;-65
2022/06/01 21:54:26;;;;;;;3.60;2.13;;;;;;;;;;5094437;28;20077;-61
2022/06/01 21:57:11;;;;;;;3.22;1.92;;;;;;;;;;5098789;27;20299;-60
2022/06/01 21:59:57;;;;;;;7.10;2.42;;;;;;;;;;5110813;28;20070;-61
2022/06/01 22:02:43;;;;;;;5.53;2.58;;;;;;;;;;5107065;28;20113;-62
2022/06/01 22:05:32;;;;;;;3.80;2.10;;;;;;;;;;5116980;28;20276;-62
2022/06/01 22:08:18;;;;;;;;;;;;;;;;;;5115675;27;20085;-63
2022/06/01 22:14:07;;;;;;;3.80;1.85;;;;;;;;;;5108368;28;20016;-64
2022/06/01 22:16:53;;;;;;;4.57;2.83;;;;;;;;;;5105134;28;20020;-65
2022/06/01 22:19:39;;;;;;;4.75;2.67;;;;;;;;;;5094899;28;20391;-65
2022/06/01 22:22:24;;;;;;;5.72;2.22;;;;;;;;;;5111129;27;20033;-65
2022/06/01 22:25:10;;;;;;;4.45;2.30;;;;;;;;;;5108549;28;20023;-65
2022/06/01 22:27:55;;;;;;;5.53;2.38;;;;;;;;;;5106773;28;20544;-65
2022/06/01 22:30:41;;;;;;;3.58;2.03;;;;;;;;;;5110246;28;20107;-69
2022/06/01 22:33:26;;;;;;;4.53;2.10;;;;;;;;;;5108715;27;20055;-67
2022/06/01 22:39:16;;;;;;;4.45;2.15;;;;;;;;;;5100073;28;20058;-66
2022/06/01 22:42:02;;;;;;;3.80;2.10;;;;;;;;;;5100033;28;20012;-68
2022/06/01 22:44:50;;;;;;;3.58;2.00;;;;;;;;;;5112419;28;20119;-63
2022/06/01 22:47:38;;;;;;;3.67;2.30;;;;;;;;;;5098293;28;20406;-66
2022/06/01 22:50:28;;;;;;;4.38;2.00;;;;;;;;;;5104172;28;20024;-63
2022/06/01 22:53:26;;;;;;;3.38;1.90;;;;;;;;;;5101412;28;20012;-64
2022/06/01 22:56:12;;;;;;;5.53;2.10;;;;;;;;;;5103110;28;20048;-62
2022/06/01 22:58:58;;;;;;;2.58;1.77;;;;;;;;;;5084673;28;20016;-62
2022/06/01 23:01:43;;;;;;;3.97;1.80;;;;;;;;;;5098285;28;20489;-63
2022/06/01 23:04:29;;;;;;;3.67;1.73;;;;;;;;;;5107432;28;20019;-64
2022/06/01 23:07:14;;;;;;;2.75;1.83;;;;;;;;;;5099116;28;20388;-67
2022/06/01 23:10:00;;;;;;;7.35;1.83;;;;;;;;;;5113463;28;20061;-67
2022/06/01 23:12:46;;;;;;;3.83;1.40;;;;;;;;;;5110577;28;20436;-66
2022/06/01 23:15:32;;;;;;;3.20;1.38;;;;;;;;;;5102022;28;20040;-66
2022/06/01 23:18:17;;;;;;;3.05;1.20;;;;;;;;;;5102351;28;20016;-68
2022/06/01 23:21:03;;;;;;;3.50;1.27;;;;;;;;;;5094867;28;20158;-68
2022/06/01 23:23:49;;;;;;;2.20;1.45;;;;;;;;;;5109702;28;20020;-67
2022/06/01 23:26:34;;;;;;;2.58;1.20;;;;;;;;;;5098136;28;20028;-67
2022/06/01 23:29:30;;;;;;;3.72;1.30;;;;;;;;;;5101912;28;20024;-66
2022/06/01 23:32:35;;;;;;;4.07;1.48;;;;;;;;;;5106790;28;20015;-66
2022/06/01 23:35:47;;;;;;;4.88;1.38;;;;;;;;;;5097251;28;20474;-66
2022/06/01 23:38:41;;;;;;;3.67;1.75;;;;;;;;;;5107323;28;20063;-67
2022/06/01 23:41:33;;;;;;;2.15;1.30;;;;;;;;;;5102445;28;20091;-66
2022/06/01 23:44:27;;;;;;;2.78;1.42;;;;;;;;;;5103919;28;20035;-66
2022/06/01 23:47:18;;;;;;;4.07;1.10;;;;;;;;;;5100646;28;20103;-64
2022/06/01 23:50:16;;;;;;;2.05;1.33;;;;;;;;;;5100948;28;20116;-63
2022/06/01 23:53:15;;;;;;;1.50;1.20;;;;;;;;;;5106069;28;20478;-62
2022/06/01 23:56:16;;;;;;;4.35;1.40;;;;;;;;;;5081712;28;20024;-63
2022/06/01 23:59:02;;;;;;;1.55;1.20;;;;;;;;;;5092375;28;20090;-66
